KSHV/SHV METAR and TAF weather

Enter ICAO airport designator
Station Type Date Time Source
KSHV METAR 2019/08/20 08:56 UTC NOAA

KSHV 200856Z 15003KT 10SM CLR 25/24 A2999 RMK AO2 SLP150 T02500239 56005


Station Type Date Time Source
KSHV Decoded METAR 2019/08/20 08:56 UTC NOAA

SHREVEPORT REGIONAL AIRPORT, LA, United States (KSHV) 32-27N 93-50W 80M
Aug 20, 2019 - 04:56 AM EDT / 2019.08.20 0856 UTC
Wind: from the SSE (150 degrees) at 3 MPH (3 KT):0
Visibility: 10 mile(s):0
Sky conditions: clear
Temperature: 77.0 F (25.0 C)
Dew Point: 75.0 F (23.9 C)
Relative Humidity: 93%
Pressure (altimeter): 29.99 in. Hg (1015 hPa)
Pressure tendency: 0.01 inches (0.5 hPa) lower than three hours ago
ob: KSHV 200856Z 15003KT 10SM CLR 25/24 A2999 RMK AO2 SLP150 T02500239 56005
cycle: 9

Station Type Date Time Source
KSHV TAF 2019/08/20 06:22 UTC NOAA

TAF KSHV 200520Z 2006/2106 VRB03KT P6SM SKC
TEMPO 2011/2014 BKN020
FM201600 12005KT P6SM SCT040
FM210000 19004KT P6SM SKC

Example: see airport list